createdAt,value
2019-05-23T00:02:15.598Z,101441.81
2019-05-23T00:05:13.352Z,101430.44
2019-05-23T00:08:01.919Z,101430.88
2019-05-23T00:10:55.940Z,101438.35
2019-05-23T00:13:50.934Z,101435.28
2019-05-23T00:16:26.893Z,101437.52
2019-05-23T00:18:58.920Z,101427.67
2019-05-23T00:21:31.057Z,101425.42
2019-05-23T00:24:02.992Z,101425.49
2019-05-23T00:26:36.963Z,101420.36
2019-05-23T00:29:10.309Z,101430.02
2019-05-23T00:31:50.419Z,101422.03
2019-05-23T00:34:21.845Z,101422.11
2019-05-23T00:36:55.169Z,101416.52
2019-05-23T00:39:26.185Z,101414.34
2019-05-23T00:41:58.853Z,101415.54
2019-05-23T00:44:31.326Z,101413.80
2019-05-23T00:47:05.509Z,101404.25
2019-05-23T00:49:36.436Z,101406.02
2019-05-23T00:52:09.564Z,101400.33
2019-05-23T00:54:41.294Z,101405.62
2019-05-23T00:57:13.148Z,101399.02
2019-05-23T00:59:43.863Z,101396.33
2019-05-23T01:02:15.574Z,101390.50
2019-05-23T01:04:46.199Z,101395.47
2019-05-23T01:07:20.471Z,101392.48
2019-05-23T01:09:52.230Z,101388.13
2019-05-23T01:12:25.168Z,101390.34
2019-05-23T01:14:55.494Z,101384.53
2019-05-23T01:17:29.054Z,101381.55
2019-05-23T01:20:00.944Z,101383.75
2019-05-23T01:22:32.192Z,101380.95
2019-05-23T01:25:05.263Z,101376.69
2019-05-23T01:27:36.701Z,101364.04
2019-05-23T01:30:09.598Z,101374.16
2019-05-23T01:32:47.288Z,101366.27
2019-05-23T01:35:20.674Z,101365.41
2019-05-23T01:37:55.106Z,101363.25
2019-05-23T01:40:25.727Z,101369.86
2019-05-23T01:42:57.908Z,101360.66
2019-05-23T01:45:28.327Z,101365.46
2019-05-23T01:47:59.830Z,101368.12
2019-05-23T01:50:30.761Z,101363.78
2019-05-23T01:53:01.986Z,101357.65
2019-05-23T01:55:32.808Z,101362.91
2019-05-23T01:58:04.761Z,101367.31
2019-05-23T02:00:35.572Z,101361.19
2019-05-23T02:03:07.861Z,101368.22
2019-05-23T02:05:39.147Z,101372.19
2019-05-23T02:08:15.491Z,101369.58
2019-05-23T02:10:46.031Z,101370.01
2019-05-23T02:13:17.760Z,101372.22
2019-05-23T02:15:49.459Z,101373.95
2019-05-23T02:18:22.170Z,101368.69
2019-05-23T02:20:53.984Z,101380.51
2019-05-23T02:23:25.377Z,101370.41
2019-05-23T02:25:58.168Z,101367.36
2019-05-23T02:28:31.087Z,101367.81
2019-05-23T02:31:02.251Z,101373.08
2019-05-23T02:33:36.158Z,101367.83
2019-05-23T02:36:07.033Z,101370.43
2019-05-23T02:38:49.759Z,101369.56
2019-05-23T02:41:39.889Z,101362.53
2019-05-23T02:44:11.826Z,101367.81
2019-05-23T02:46:53.320Z,101371.77
2019-05-23T02:49:28.777Z,101365.63
2019-05-23T02:52:02.009Z,101366.95
2019-05-23T02:54:37.200Z,101362.55
2019-05-23T02:57:06.764Z,101361.23
2019-05-23T02:59:48.103Z,101354.23
2019-05-23T03:02:38.186Z,101350.73
2019-05-23T03:05:15.500Z,101356.00
2019-05-23T03:07:45.822Z,101360.81
2019-05-23T03:10:20.657Z,101359.96
2019-05-23T03:12:53.270Z,101361.28
2019-05-23T03:15:28.434Z,101357.75
2019-05-23T03:18:01.781Z,101357.76
2019-05-23T03:20:34.721Z,101354.70
2019-05-23T03:23:11.696Z,101352.47
2019-05-23T03:26:01.519Z,101352.06
2019-05-23T03:28:39.719Z,101342.83
2019-05-23T03:31:30.634Z,101341.11
2019-05-23T03:33:58.588Z,101331.02
2019-05-23T03:36:30.342Z,101331.91
2019-05-23T03:39:02.068Z,101336.72
2019-05-23T03:41:33.248Z,101342.42
2019-05-23T03:44:05.033Z,101343.70
2019-05-23T03:46:38.595Z,101351.16
2019-05-23T03:49:10.762Z,101347.66
2019-05-23T03:51:41.802Z,101351.12
2019-05-23T03:54:15.422Z,101351.56
2019-05-23T03:56:47.547Z,101348.13
2019-05-23T03:59:20.045Z,101347.21
2019-05-23T04:01:52.579Z,101345.93
2019-05-23T04:04:24.689Z,101346.78
2019-05-23T04:06:57.055Z,101342.39
2019-05-23T04:09:28.090Z,101345.90
2019-05-23T04:11:58.933Z,101350.72
2019-05-23T04:14:30.071Z,101351.59
2019-05-23T04:17:05.213Z,101347.66
2019-05-23T04:19:35.580Z,101349.41
2019-05-23T04:22:09.045Z,101354.19
2019-05-23T04:24:39.887Z,101353.71
2019-05-23T04:27:14.699Z,101358.53
2019-05-23T04:29:45.522Z,101355.94
2019-05-23T04:32:17.745Z,101355.06
2019-05-23T04:34:48.483Z,101356.85
2019-05-23T04:37:19.558Z,101349.80
2019-05-23T04:39:51.383Z,101351.08
2019-05-23T04:42:21.743Z,101350.28
2019-05-23T04:44:52.295Z,101355.94
2019-05-23T04:47:26.388Z,101353.74
2019-05-23T04:49:57.137Z,101350.69
2019-05-23T04:52:28.313Z,101346.34
2019-05-23T04:54:59.446Z,101341.98
2019-05-23T04:57:31.604Z,101339.78
2019-05-23T05:00:03.235Z,101335.40
2019-05-23T05:02:36.823Z,101346.80
2019-05-23T05:05:07.952Z,101345.05
2019-05-23T05:07:41.564Z,101345.48
2019-05-23T05:10:16.144Z,101338.91
2019-05-23T05:12:47.742Z,101339.28
2019-05-23T05:15:18.752Z,101337.96
2019-05-23T05:17:51.711Z,101342.64
2019-05-23T05:20:22.622Z,101336.66
2019-05-23T05:22:53.430Z,101342.67
2019-05-23T05:25:25.089Z,101347.27
2019-05-23T05:27:56.337Z,101343.38
2019-05-23T05:30:28.142Z,101342.72
2019-05-23T05:32:59.354Z,101348.59
2019-05-23T05:35:30.284Z,101344.70
2019-05-23T05:38:03.270Z,101348.52
2019-05-23T05:40:34.558Z,101349.55
2019-05-23T05:43:05.737Z,101348.44
2019-05-23T05:45:36.468Z,101349.94
2019-05-23T05:48:07.305Z,101348.81
2019-05-23T05:50:38.981Z,101348.98
2019-05-23T05:53:10.208Z,101345.25
2019-05-23T05:55:40.508Z,101348.11
2019-05-23T05:58:11.793Z,101349.65
2019-05-23T06:00:49.997Z,101352.34
2019-05-23T06:03:22.066Z,101353.42
2019-05-23T06:05:55.348Z,101358.67
2019-05-23T06:08:33.230Z,101366.73
2019-05-23T06:11:04.166Z,101363.04
2019-05-23T06:13:35.523Z,101365.16
2019-05-23T06:16:06.071Z,101365.36
2019-05-23T06:18:38.114Z,101369.53
2019-05-23T06:21:11.548Z,101366.09
2019-05-23T06:23:42.110Z,101366.30
2019-05-23T06:26:12.636Z,101363.98
2019-05-23T06:28:48.367Z,101366.91
2019-05-23T06:31:19.288Z,101368.83
2019-05-23T06:33:49.779Z,101369.77
2019-05-23T06:36:20.096Z,101367.89
2019-05-23T06:38:52.118Z,101373.49
2019-05-23T06:41:24.235Z,101371.42
2019-05-23T06:43:55.205Z,101367.81
2019-05-23T06:46:26.016Z,101366.91
2019-05-23T06:48:57.143Z,101361.67
2019-05-23T06:51:27.968Z,101358.39
2019-05-23T06:53:59.708Z,101355.66
2019-05-23T06:56:32.329Z,101355.87
2019-05-23T06:59:04.991Z,101351.84
2019-05-23T07:01:35.307Z,101350.17
2019-05-23T07:04:08.393Z,101354.33
2019-05-23T07:06:39.078Z,101353.48
2019-05-23T07:09:13.237Z,101346.78
2019-05-23T07:11:43.961Z,101351.78
2019-05-23T07:14:14.937Z,101346.76
2019-05-23T07:16:45.597Z,101352.22
2019-05-23T07:19:17.497Z,101350.29
2019-05-23T07:21:47.916Z,101348.56
2019-05-23T07:24:19.483Z,101343.09
2019-05-23T07:26:50.115Z,101347.50
2019-05-23T07:29:21.740Z,101346.38
2019-05-23T07:31:52.058Z,101346.33
2019-05-23T07:34:24.085Z,101345.84
2019-05-23T07:36:55.050Z,101344.79
2019-05-23T07:39:28.191Z,101343.62
2019-05-23T07:41:59.166Z,101345.19
2019-05-23T07:44:47.186Z,101346.44
2019-05-23T07:47:04.101Z,101343.30
2019-05-23T07:49:34.684Z,101346.66
2019-05-23T07:52:05.847Z,101346.66
2019-05-23T07:54:41.464Z,101352.57
2019-05-23T07:57:13.346Z,101352.78
2019-05-23T07:59:46.310Z,101356.20
2019-05-23T08:02:25.698Z,101354.58
2019-05-23T08:04:56.581Z,101364.12
2019-05-23T08:07:27.599Z,101357.62
2019-05-23T08:10:01.064Z,101360.39
2019-05-23T08:12:31.761Z,101352.80
2019-05-23T08:15:02.531Z,101361.19
2019-05-23T08:17:33.516Z,101355.64
2019-05-23T08:20:06.108Z,101355.09
2019-05-23T08:22:37.018Z,101346.80
2019-05-23T08:25:08.111Z,101351.51
2019-05-23T08:27:38.809Z,101353.98
2019-05-23T08:30:12.733Z,101348.87
2019-05-23T08:32:43.406Z,101343.95
2019-05-23T08:35:17.990Z,101342.00
2019-05-23T08:37:48.029Z,101343.13
2019-05-23T08:40:23.322Z,101347.59
2019-05-23T08:42:53.940Z,101347.59
2019-05-23T08:45:24.930Z,101341.53
2019-05-23T08:47:55.719Z,101352.95
2019-05-23T08:50:27.163Z,101351.20
2019-05-23T08:52:57.481Z,101354.05
2019-05-23T08:55:31.091Z,101350.00
2019-05-23T08:58:01.674Z,101350.23
2019-05-23T09:00:38.401Z,101348.55
2019-05-23T09:03:08.723Z,101348.06
2019-05-23T09:05:41.419Z,101345.44
2019-05-23T09:08:16.673Z,101340.30
2019-05-23T09:10:48.146Z,101340.30
2019-05-23T09:13:19.499Z,101349.91
2019-05-23T09:15:53.200Z,101346.11
2019-05-23T09:18:22.861Z,101346.11
2019-05-23T09:20:58.434Z,101343.59
2019-05-23T09:23:29.340Z,101343.41
2019-05-23T09:26:00.018Z,101346.28
2019-05-23T09:28:32.882Z,101345.70
2019-05-23T09:31:09.224Z,101349.94
2019-05-23T09:33:42.281Z,101345.83
2019-05-23T09:36:14.803Z,101347.59
2019-05-23T09:38:45.923Z,101341.81
2019-05-23T09:41:16.937Z,101346.63
2019-05-23T09:43:47.666Z,101351.70
2019-05-23T09:46:18.051Z,101345.48
2019-05-23T09:48:48.732Z,101346.00
2019-05-23T09:51:21.330Z,101344.00
2019-05-23T09:53:53.744Z,101337.54
2019-05-23T09:56:24.524Z,101344.89
2019-05-23T09:58:55.031Z,101346.84
2019-05-23T10:01:26.541Z,101332.82
2019-05-23T10:03:57.280Z,101335.39
2019-05-23T10:06:31.006Z,101340.00
2019-05-23T10:09:02.125Z,101337.56
2019-05-23T10:11:32.581Z,101330.17
2019-05-23T10:14:06.383Z,101331.28
2019-05-23T10:16:37.038Z,101335.76
2019-05-23T10:19:07.918Z,101332.67
2019-05-23T10:21:38.345Z,101331.47
2019-05-23T10:24:10.831Z,101334.26
2019-05-23T10:26:41.186Z,101334.64
2019-05-23T10:29:11.805Z,101331.00
2019-05-23T10:31:43.015Z,101324.44
2019-05-23T10:34:15.018Z,101324.73
2019-05-23T10:36:45.893Z,101319.55
2019-05-23T10:39:17.707Z,101313.89
2019-05-23T10:41:49.117Z,101315.74
2019-05-23T10:44:20.703Z,101314.11
2019-05-23T10:46:52.424Z,101313.45
2019-05-23T10:49:22.811Z,101313.39
2019-05-23T10:51:53.678Z,101317.28
2019-05-23T10:54:25.787Z,101316.92
2019-05-23T10:56:56.076Z,101311.17
2019-05-23T10:59:26.400Z,101299.25
2019-05-23T11:01:56.872Z,101298.52
2019-05-23T11:04:27.713Z,101297.66
2019-05-23T11:06:58.986Z,101291.41
2019-05-23T11:09:37.965Z,101292.05
2019-05-23T11:12:01.910Z,101283.00
2019-05-23T11:14:32.777Z,101283.47
2019-05-23T11:17:03.917Z,101284.73
2019-05-23T11:19:35.611Z,101274.41
2019-05-23T11:22:07.707Z,101274.45
2019-05-23T11:24:38.490Z,101274.53
2019-05-23T11:27:10.060Z,101274.34
2019-05-23T11:29:40.416Z,101273.83
2019-05-23T11:32:11.079Z,101265.08
2019-05-23T11:34:42.115Z,101265.75
2019-05-23T11:37:16.692Z,101270.03
2019-05-23T11:39:49.741Z,101261.53
2019-05-23T11:42:19.631Z,101263.31
2019-05-23T11:44:50.362Z,101259.22
2019-05-23T11:47:22.178Z,101256.91
2019-05-23T11:49:52.544Z,101259.05
2019-05-23T11:52:23.699Z,101259.19
2019-05-23T11:54:55.635Z,101254.05
2019-05-23T11:57:27.006Z,101250.20
2019-05-23T11:59:57.508Z,101258.79
2019-05-23T12:02:33.032Z,101254.55
2019-05-23T12:05:06.589Z,101248.27
2019-05-23T12:07:37.808Z,101247.27
2019-05-23T12:10:09.462Z,101248.14
2019-05-23T12:12:41.998Z,101245.02
2019-05-23T12:15:15.848Z,101236.42
2019-05-23T12:17:47.833Z,101236.55
2019-05-23T12:20:18.469Z,101235.20
2019-05-23T12:22:49.610Z,101240.27
2019-05-23T12:25:23.071Z,101228.33
2019-05-23T12:27:52.536Z,101224.72
2019-05-23T12:30:23.563Z,101223.61
2019-05-23T12:32:54.618Z,101220.97
2019-05-23T12:35:24.934Z,101226.92
2019-05-23T12:37:56.424Z,101225.09
2019-05-23T12:40:28.035Z,101221.63
2019-05-23T12:42:59.585Z,101230.97
2019-05-23T12:45:30.363Z,101222.48
2019-05-23T12:48:04.003Z,101221.83
2019-05-23T12:50:46.794Z,101216.66
2019-05-23T12:53:19.176Z,101218.27
2019-05-23T12:55:49.707Z,101215.86
2019-05-23T12:58:22.121Z,101216.86
2019-05-23T13:01:00.248Z,101217.24
2019-05-23T13:03:34.021Z,101229.97
2019-05-23T13:06:04.236Z,101231.09
2019-05-23T13:08:35.845Z,101228.59
2019-05-23T13:11:06.523Z,101221.16
2019-05-23T13:13:37.828Z,101221.87
2019-05-23T13:16:08.069Z,101220.41
2019-05-23T13:18:39.794Z,101220.18
2019-05-23T13:21:10.339Z,101219.78
2019-05-23T13:23:41.181Z,101217.03
2019-05-23T13:26:12.308Z,101214.45
2019-05-23T13:28:42.920Z,101213.77
2019-05-23T13:31:13.552Z,101217.05
2019-05-23T13:33:44.203Z,101210.59
2019-05-23T13:36:15.945Z,101216.13
2019-05-23T13:41:26.571Z,101214.38
2019-05-23T13:43:57.625Z,101208.65
2019-05-23T13:46:28.025Z,101211.54
2019-05-23T13:48:59.380Z,101215.64
2019-05-23T13:51:30.191Z,101211.72
2019-05-23T13:54:01.418Z,101211.45
2019-05-23T13:56:32.225Z,101208.25
2019-05-23T13:59:06.977Z,101215.98
2019-05-23T14:01:38.085Z,101219.66
2019-05-23T14:04:09.263Z,101213.38
2019-05-23T14:06:39.590Z,101216.13
2019-05-23T14:09:12.770Z,101207.53
2019-05-23T14:11:44.087Z,101203.92
2019-05-23T14:14:15.525Z,101197.50
2019-05-23T14:16:57.431Z,101200.69
2019-05-23T14:19:30.204Z,101193.72
2019-05-23T14:22:02.090Z,101197.19
2019-05-23T14:24:37.335Z,101194.02
2019-05-23T14:27:15.645Z,101193.41
2019-05-23T14:29:50.162Z,101190.96
2019-05-23T14:32:22.431Z,101187.30
2019-05-23T14:34:54.518Z,101188.36
2019-05-23T14:37:26.398Z,101185.89
2019-05-23T14:40:00.030Z,101186.09
2019-05-23T14:42:37.691Z,101181.67
2019-05-23T14:45:10.685Z,101179.56
2019-05-23T14:47:57.947Z,101175.46
2019-05-23T14:50:39.315Z,101172.70
2019-05-23T14:53:12.781Z,101174.05
2019-05-23T14:55:45.821Z,101172.14
2019-05-23T14:58:16.954Z,101183.61
2019-05-23T15:00:50.338Z,101180.11
2019-05-23T15:03:20.782Z,101177.28
2019-05-23T15:05:52.864Z,101178.59
2019-05-23T15:08:23.364Z,101176.75
2019-05-23T15:10:53.928Z,101179.95
2019-05-23T15:13:26.251Z,101186.52
2019-05-23T15:15:59.273Z,101198.42
2019-05-23T15:18:29.701Z,101209.13
2019-05-23T15:21:01.076Z,101222.80
2019-05-23T15:23:31.462Z,101218.53
2019-05-23T15:26:20.978Z,101212.48
2019-05-23T15:28:36.495Z,101217.45
2019-05-23T15:31:08.021Z,101214.02
2019-05-23T15:33:38.352Z,101211.51
2019-05-23T15:36:09.533Z,101212.67
2019-05-23T15:38:40.763Z,101202.19
2019-05-23T15:41:13.126Z,101201.47
2019-05-23T15:43:43.626Z,101200.31
2019-05-23T15:46:14.299Z,101199.61
2019-05-23T15:48:45.023Z,101197.98
2019-05-23T15:51:17.732Z,101198.48
2019-05-23T15:53:56.084Z,101202.47
2019-05-23T15:56:41.859Z,101207.50
2019-05-23T15:59:25.117Z,101208.25
2019-05-23T16:02:09.316Z,101217.81
2019-05-23T16:04:39.442Z,101220.81
2019-05-23T16:07:10.962Z,101225.31
2019-05-23T16:09:43.278Z,101224.50
2019-05-23T16:12:16.663Z,101225.41
2019-05-23T16:14:47.456Z,101217.27
2019-05-23T16:17:18.284Z,101223.25
2019-05-23T16:19:48.695Z,101229.13
2019-05-23T16:22:20.671Z,101224.02
2019-05-23T16:24:51.108Z,101234.52
2019-05-23T16:27:22.014Z,101231.91
2019-05-23T16:29:53.380Z,101233.20
2019-05-23T16:32:25.435Z,101233.96
2019-05-23T16:34:55.874Z,101218.98
2019-05-23T16:37:26.557Z,101213.75
2019-05-23T16:39:57.207Z,101203.83
2019-05-23T16:42:28.964Z,101207.11
2019-05-23T16:44:59.289Z,101203.98
2019-05-23T16:47:30.426Z,101197.45
2019-05-23T16:50:00.748Z,101203.59
2019-05-23T16:52:33.395Z,101201.44
2019-05-23T16:55:05.704Z,101195.59
2019-05-23T16:57:38.448Z,101193.75
2019-05-23T17:00:29.088Z,101192.42
2019-05-23T17:03:19.353Z,101187.07
2019-05-23T17:05:58.117Z,101200.11
2019-05-23T17:08:30.572Z,101183.97
2019-05-23T17:11:20.122Z,101190.12
2019-05-23T17:13:56.600Z,101195.17
2019-05-23T17:16:31.228Z,101188.08
2019-05-23T17:19:04.930Z,101198.77
2019-05-23T17:21:37.134Z,101201.59
2019-05-23T17:24:10.286Z,101205.66
2019-05-23T17:26:42.923Z,101210.29
2019-05-23T17:29:18.831Z,101216.02
2019-05-23T17:31:50.748Z,101212.27
2019-05-23T17:34:23.464Z,101207.12
2019-05-23T17:36:54.629Z,101204.80
2019-05-23T17:39:28.007Z,101207.58
2019-05-23T17:41:58.691Z,101195.25
2019-05-23T17:44:30.503Z,101192.96
2019-05-23T17:47:00.927Z,101193.02
2019-05-23T17:49:32.918Z,101188.84
2019-05-23T17:52:03.354Z,101202.64
2019-05-23T17:54:34.410Z,101203.28
2019-05-23T17:57:05.272Z,101208.75
2019-05-23T17:59:36.727Z,101211.17
2019-05-23T18:02:07.658Z,101207.67
2019-05-23T18:04:38.413Z,101205.76
2019-05-23T18:07:09.880Z,101218.69
2019-05-23T18:09:40.235Z,101221.24
2019-05-23T18:12:10.572Z,101222.03
2019-05-23T18:14:43.972Z,101234.42
2019-05-23T18:17:15.392Z,101227.06
2019-05-23T18:19:46.874Z,101228.52
2019-05-23T18:22:18.483Z,101239.23
2019-05-23T18:24:49.313Z,101244.84
2019-05-23T18:27:20.206Z,101257.02
2019-05-23T18:29:52.011Z,101264.28
2019-05-23T18:32:23.521Z,101259.83
2019-05-23T18:34:55.270Z,101260.14
2019-05-23T18:37:25.905Z,101264.90
2019-05-23T18:39:56.676Z,101266.29
2019-05-23T18:42:27.232Z,101274.94
2019-05-23T18:44:59.122Z,101287.83
2019-05-23T18:47:31.490Z,101300.67
2019-05-23T18:50:02.700Z,101316.18
2019-05-23T18:52:34.080Z,101328.59
2019-05-23T18:55:11.256Z,101333.07
2019-05-23T18:57:47.209Z,101332.98
2019-05-23T19:00:22.177Z,101333.08
2019-05-23T19:02:55.495Z,101329.55
2019-05-23T19:05:31.101Z,101327.70
2019-05-23T19:08:03.938Z,101316.55
2019-05-23T19:10:35.631Z,101319.09
2019-05-23T19:13:06.248Z,101314.39
2019-05-23T19:15:39.174Z,101318.77
2019-05-23T19:18:09.574Z,101320.06
2019-05-23T19:20:41.722Z,101318.28
2019-05-23T19:23:12.641Z,101322.75
2019-05-23T19:25:46.991Z,101318.79
2019-05-23T19:28:18.142Z,101312.22
2019-05-23T19:30:49.561Z,101318.47
2019-05-23T19:33:19.990Z,101315.04
2019-05-23T19:35:53.388Z,101316.80
2019-05-23T19:38:24.141Z,101310.69
2019-05-23T19:40:55.882Z,101302.77
2019-05-23T19:43:27.648Z,101309.00
2019-05-23T19:45:58.157Z,101301.99
2019-05-23T19:48:29.404Z,101295.88
2019-05-23T19:51:00.760Z,101298.52
2019-05-23T19:53:31.892Z,101305.05
2019-05-23T19:56:04.358Z,101312.13
2019-05-23T19:58:36.116Z,101312.98
2019-05-23T20:01:07.865Z,101319.13
2019-05-23T20:03:38.883Z,101323.53
2019-05-23T20:06:12.532Z,101317.80
2019-05-23T20:08:44.272Z,101324.80
2019-05-23T20:11:14.925Z,101324.84
2019-05-23T20:13:46.529Z,101330.95
2019-05-23T20:16:18.751Z,101335.78
2019-05-23T20:18:49.965Z,101327.86
2019-05-23T20:21:20.776Z,101329.66
2019-05-23T20:23:52.215Z,101334.87
2019-05-23T20:26:23.448Z,101338.86
2019-05-23T20:28:54.311Z,101340.19
2019-05-23T20:31:24.652Z,101337.09
2019-05-23T20:33:55.085Z,101343.63
2019-05-23T20:36:25.636Z,101346.34
2019-05-23T20:38:55.875Z,101347.66
2019-05-23T20:41:28.341Z,101349.00
2019-05-23T20:43:58.829Z,101357.75
2019-05-23T20:46:32.647Z,101363.89
2019-05-23T20:49:03.274Z,101367.42
2019-05-23T20:51:34.358Z,101379.23
2019-05-23T20:54:05.505Z,101382.33
2019-05-23T20:56:38.133Z,101390.21
2019-05-23T20:59:09.229Z,101395.45
2019-05-23T21:01:41.339Z,101389.31
2019-05-23T21:04:11.751Z,101379.23
2019-05-23T21:06:42.386Z,101378.38
2019-05-23T21:09:15.725Z,101380.58
2019-05-23T21:11:45.892Z,101386.69
2019-05-23T21:14:16.794Z,101391.51
2019-05-23T21:16:48.189Z,101392.84
2019-05-23T21:19:18.583Z,101387.56
2019-05-23T21:21:50.179Z,101394.16
2019-05-23T21:24:21.805Z,101393.72
2019-05-23T21:26:53.377Z,101397.64
2019-05-23T21:29:23.744Z,101393.27
2019-05-23T21:31:55.957Z,101394.59
2019-05-23T21:34:26.638Z,101394.59
2019-05-23T21:36:57.328Z,101399.83
2019-05-23T21:39:28.203Z,101404.21
2019-05-23T21:41:59.421Z,101391.09
2019-05-23T21:44:29.734Z,101386.24
2019-05-23T21:47:01.571Z,101396.76
2019-05-23T21:49:31.891Z,101399.83
2019-05-23T21:52:02.694Z,101389.75
2019-05-23T21:54:33.469Z,101385.37
2019-05-23T21:57:04.921Z,101392.38
2019-05-23T21:59:35.825Z,101386.27
2019-05-23T22:02:17.508Z,101386.27
2019-05-23T22:04:49.520Z,101384.52
2019-05-23T22:07:20.791Z,101388.43
2019-05-23T22:09:51.504Z,101394.57
2019-05-23T22:12:22.830Z,101394.57
2019-05-23T22:14:53.957Z,101393.69
2019-05-23T22:17:27.974Z,101392.38
2019-05-23T22:19:58.484Z,101391.91
2019-05-23T22:22:29.246Z,101385.77
2019-05-23T22:25:03.718Z,101383.58
2019-05-23T22:27:38.228Z,101386.24
2019-05-23T22:30:09.411Z,101377.84
2019-05-23T22:32:40.254Z,101373.32
2019-05-23T22:35:12.471Z,101380.77
2019-05-23T22:37:44.746Z,101387.77
2019-05-23T22:40:15.989Z,101393.02
2019-05-23T22:42:46.671Z,101393.45
2019-05-23T22:45:19.050Z,101393.45
2019-05-23T22:47:50.785Z,101396.02
2019-05-23T22:50:21.221Z,101392.48
2019-05-23T22:52:51.571Z,101384.18
2019-05-23T22:55:21.897Z,101381.20
2019-05-23T22:57:53.836Z,101381.23
2019-05-23T23:00:26.347Z,101372.87
2019-05-23T23:02:56.742Z,101380.25
2019-05-23T23:05:27.588Z,101392.03
2019-05-23T23:08:01.486Z,101390.71
2019-05-23T23:10:31.865Z,101388.52
2019-05-23T23:13:02.854Z,101389.83
2019-05-23T23:15:33.655Z,101391.58
2019-05-23T23:18:05.513Z,101393.83
2019-05-23T23:20:36.826Z,101390.33
2019-05-23T23:23:07.186Z,101398.20
2019-05-23T23:25:37.709Z,101397.72
2019-05-23T23:28:09.067Z,101396.86
2019-05-23T23:30:43.996Z,101398.16
2019-05-23T23:33:14.514Z,101395.53
2019-05-23T23:35:46.312Z,101399.53
2019-05-23T23:38:17.410Z,101396.60
2019-05-23T23:40:48.054Z,101394.31
2019-05-23T23:43:18.999Z,101389.41
2019-05-23T23:46:07.220Z,101395.47
2019-05-23T23:48:58.152Z,101392.83
2019-05-23T23:51:47.143Z,101389.83
2019-05-23T23:54:35.753Z,101391.48
2019-05-23T23:57:23.692Z,101387.46
2019-05-23T23:59:54.406Z,101387.47
